Time;durP1;ratioP1;P1;durP2;ratioP2;P2;SDS_P1;SDS_P2;PMS_P1;PMS_P2;Temp;Humidity;BMP_temperature;BMP_pressure;BME280_temperature;BME280_humidity;BME280_pressure;Samples;Min_cycle;Max_cycle;Signal;HPM_P1;HPM_P2
2023/05/12 00:00:23;;;;;;;25.70;19.47;;;10.10;99.90;;;;;;5075539;28;20231;-75
2023/05/12 00:02:50;;;;;;;21.17;18.27;;;10.10;99.90;;;;;;5075414;28;20201;-74
2023/05/12 00:05:18;;;;;;;21.60;18.27;;;10.10;99.90;;;;;;5075713;28;20255;-75
2023/05/12 00:07:44;;;;;;;22.17;18.63;;;10.10;99.90;;;;;;5075354;28;20197;-74
2023/05/12 00:10:11;;;;;;;22.27;18.37;;;10.10;99.90;;;;;;5075356;28;20262;-75
2023/05/12 00:12:38;;;;;;;23.50;18.63;;;10.10;99.90;;;;;;5075204;28;20193;-76
2023/05/12 00:15:05;;;;;;;23.43;19.30;;;10.10;99.90;;;;;;5075148;28;20228;-75
2023/05/12 00:17:32;;;;;;;23.33;19.37;;;10.10;99.90;;;;;;5075038;28;20201;-75
2023/05/12 00:19:59;;;;;;;22.20;17.67;;;10.10;99.90;;;;;;5075182;28;20688;-74
2023/05/12 00:22:27;;;;;;;21.73;17.97;;;10.10;99.90;;;;;;5075402;28;20239;-75
2023/05/12 00:24:53;;;;;;;21.17;18.50;;;10.10;99.90;;;;;;5075303;28;20205;-75
2023/05/12 00:27:20;;;;;;;19.77;17.57;;;10.10;99.90;;;;;;5075301;28;20246;-76
2023/05/12 00:29:46;;;;;;;23.17;17.53;;;10.10;99.90;;;;;;5075036;28;20201;-75
2023/05/12 00:32:13;;;;;;;19.60;17.53;;;10.10;99.90;;;;;;5075141;28;20205;-75
2023/05/12 00:34:40;;;;;;;22.60;18.93;;;10.00;99.90;;;;;;5075030;28;20236;-75
2023/05/12 00:37:07;;;;;;;20.30;17.20;;;10.00;99.90;;;;;;5074951;28;20201;-76
2023/05/12 00:39:36;;;;;;;19.93;17.37;;;10.00;99.90;;;;;;5074417;28;20529;-76
2023/05/12 00:42:04;;;;;;;19.23;16.40;;;10.00;99.90;;;;;;5074668;28;20645;-76
2023/05/12 00:44:31;;;;;;;18.83;16.60;;;10.00;99.90;;;;;;5074624;28;20201;-73
2023/05/12 00:46:57;;;;;;;18.90;16.90;;;10.00;99.90;;;;;;5074516;28;20686;-74
2023/05/12 00:49:26;;;;;;;19.77;17.17;;;10.00;99.90;;;;;;5074607;28;20660;-75
2023/05/12 00:51:54;;;;;;;18.77;16.87;;;10.00;99.90;;;;;;5074274;28;20648;-75
2023/05/12 00:54:21;;;;;;;20.27;17.40;;;10.00;99.90;;;;;;5074437;28;20228;-75
2023/05/12 00:56:49;;;;;;;20.30;16.73;;;10.00;99.90;;;;;;5074509;28;20205;-75
2023/05/12 00:59:16;;;;;;;20.27;18.13;;;10.00;99.90;;;;;;5074207;28;20208;-75
2023/05/12 01:01:42;;;;;;;23.57;17.87;;;10.00;99.90;;;;;;5074513;28;20603;-74
2023/05/12 01:04:09;;;;;;;20.90;17.63;;;10.00;99.90;;;;;;5074236;28;20649;-75
2023/05/12 01:06:42;;;;;;;19.43;17.00;;;10.00;99.90;;;;;;5072978;28;20648;-76
2023/05/12 01:09:09;;;;;;;23.83;18.07;;;9.90;99.90;;;;;;5074338;28;20197;-76
2023/05/12 01:11:36;;;;;;;20.60;17.63;;;10.00;99.90;;;;;;5074124;28;20258;-75
2023/05/12 01:14:04;;;;;;;20.57;18.37;;;9.90;99.90;;;;;;5074181;28;20295;-75
2023/05/12 01:16:35;;;;;;;19.33;17.33;;;10.00;99.90;;;;;;5074010;28;20196;-74
2023/05/12 01:19:06;;;;;;;20.43;18.03;;;9.90;99.90;;;;;;5073973;28;20204;-74
2023/05/12 01:21:33;;;;;;;20.83;16.90;;;9.90;99.90;;;;;;5073895;28;20197;-74
2023/05/12 01:24:05;;;;;;;23.23;17.97;;;9.90;99.90;;;;;;5074022;28;20266;-74
2023/05/12 01:26:34;;;;;;;21.60;16.90;;;9.90;99.90;;;;;;5073693;28;20616;-74
2023/05/12 01:29:03;;;;;;;20.20;16.83;;;9.90;99.90;;;;;;5073825;28;20193;-74
2023/05/12 01:31:30;;;;;;;20.70;17.43;;;9.90;99.90;;;;;;5074016;28;20193;-74
2023/05/12 01:33:57;;;;;;;20.27;16.90;;;9.90;99.90;;;;;;5073238;28;20197;-75
2023/05/12 01:36:23;;;;;;;19.37;16.63;;;9.90;99.90;;;;;;5073824;28;20722;-76
2023/05/12 01:38:50;;;;;;;21.23;17.03;;;9.90;99.90;;;;;;5073193;28;20193;-75
2023/05/12 01:41:17;;;;;;;19.47;17.47;;;10.00;99.90;;;;;;5073695;28;20561;-75
2023/05/12 01:43:45;;;;;;;20.40;18.20;;;9.90;99.90;;;;;;5073805;28;20193;-75
2023/05/12 01:46:11;;;;;;;19.47;17.03;;;9.90;99.90;;;;;;5073480;28;20201;-75
2023/05/12 01:48:38;;;;;;;20.30;17.47;;;9.90;99.90;;;;;;5073407;28;20197;-75
2023/05/12 01:51:07;;;;;;;20.20;17.27;;;9.80;99.90;;;;;;5073240;28;20205;-75
2023/05/12 01:53:34;;;;;;;19.73;17.63;;;9.90;99.90;;;;;;5073255;28;20225;-75
2023/05/12 01:56:00;;;;;;;21.47;17.30;;;9.90;99.90;;;;;;5073309;28;20630;-74
2023/05/12 01:58:27;;;;;;;21.30;18.07;;;9.80;99.90;;;;;;5073368;28;20200;-75
2023/05/12 02:00:55;;;;;;;22.50;17.77;;;9.80;99.90;;;;;;5073278;28;20604;-75
2023/05/12 02:03:21;;;;;;;20.23;17.87;;;9.80;99.90;;;;;;5073213;28;20254;-74
2023/05/12 02:05:48;;;;;;;23.13;19.30;;;9.80;99.90;;;;;;5073074;28;20201;-74
2023/05/12 02:08:14;;;;;;;21.93;18.13;;;9.70;99.90;;;;;;5073277;28;20207;-74
2023/05/12 02:10:41;;;;;;;21.23;17.87;;;9.70;99.90;;;;;;5073126;28;20262;-74
2023/05/12 02:13:08;;;;;;;21.27;18.37;;;9.70;99.90;;;;;;5073238;28;20205;-74
2023/05/12 02:15:34;;;;;;;26.83;21.10;;;9.60;99.90;;;;;;5072952;28;20592;-74
2023/05/12 02:18:03;;;;;;;25.83;21.70;;;9.60;99.90;;;;;;5072771;28;20197;-75
2023/05/12 02:20:30;;;;;;;24.57;20.07;;;9.70;99.90;;;;;;5072784;28;20197;-74
2023/05/12 02:22:56;;;;;;;24.17;20.33;;;9.70;99.90;;;;;;5073072;28;20193;-74
2023/05/12 02:25:23;;;;;;;26.00;21.40;;;9.70;99.90;;;;;;5073108;28;20220;-75
2023/05/12 02:27:49;;;;;;;23.87;20.73;;;9.70;99.90;;;;;;5073229;28;20197;-74
2023/05/12 02:30:16;;;;;;;23.10;19.73;;;9.70;99.90;;;;;;5072696;28;20641;-74
2023/05/12 02:32:43;;;;;;;23.47;20.83;;;9.70;99.90;;;;;;5072768;28;20201;-74
2023/05/12 02:35:11;;;;;;;25.87;22.07;;;9.70;99.90;;;;;;5072933;28;20620;-74
2023/05/12 02:37:37;;;;;;;22.70;20.10;;;9.70;99.90;;;;;;5072624;28;20664;-74
2023/05/12 02:40:05;;;;;;;24.47;20.43;;;9.70;99.90;;;;;;5072783;28;20254;-74
2023/05/12 02:42:34;;;;;;;23.60;20.23;;;9.70;99.90;;;;;;5072760;28;20193;-74
2023/05/12 02:45:01;;;;;;;23.97;20.37;;;9.70;99.90;;;;;;5072474;28;20676;-75
2023/05/12 02:47:30;;;;;;;27.83;21.00;;;9.60;99.90;;;;;;5072762;28;20197;-73
2023/05/12 02:49:56;;;;;;;23.20;20.73;;;9.60;99.90;;;;;;5072772;28;20283;-74
2023/05/12 02:52:25;;;;;;;28.60;22.37;;;9.60;99.90;;;;;;5072516;28;20570;-73
2023/05/12 02:54:51;;;;;;;25.97;21.57;;;9.60;99.90;;;;;;5072482;28;20224;-74
2023/05/12 02:57:18;;;;;;;23.73;21.00;;;9.60;99.90;;;;;;5072512;28;20193;-74
2023/05/12 02:59:45;;;;;;;29.13;21.83;;;9.60;99.90;;;;;;5072624;28;20198;-74
2023/05/12 03:02:11;;;;;;;23.43;19.77;;;9.60;99.90;;;;;;5072266;28;20660;-75
2023/05/12 03:04:38;;;;;;;23.17;19.57;;;9.60;99.90;;;;;;5072610;28;20204;-74
2023/05/12 03:07:05;;;;;;;24.20;19.53;;;9.60;99.90;;;;;;5072556;28;20374;-74
2023/05/12 03:09:33;;;;;;;24.57;21.00;;;9.60;99.90;;;;;;5072345;28;20201;-75
2023/05/12 03:12:00;;;;;;;25.80;20.13;;;9.60;99.90;;;;;;5072647;28;20247;-75
2023/05/12 03:14:27;;;;;;;24.13;20.83;;;9.60;99.90;;;;;;5072276;28;20200;-76
2023/05/12 03:16:54;;;;;;;26.73;21.73;;;9.60;99.90;;;;;;5072249;28;20230;-74
2023/05/12 03:19:20;;;;;;;23.63;20.80;;;9.60;99.90;;;;;;5072439;28;20259;-74
2023/05/12 03:21:47;;;;;;;25.07;21.63;;;9.60;99.90;;;;;;5072433;28;20243;-75
2023/05/12 03:24:13;;;;;;;24.33;20.63;;;9.60;99.90;;;;;;5072192;28;20197;-74
2023/05/12 03:26:41;;;;;;;23.57;20.37;;;9.60;99.90;;;;;;5072229;28;20263;-75
2023/05/12 03:29:08;;;;;;;23.70;20.50;;;9.50;99.90;;;;;;5072193;28;20194;-74
2023/05/12 03:31:35;;;;;;;22.73;20.17;;;9.60;99.90;;;;;;5075407;28;20726;-74
2023/05/12 03:34:01;;;;;;;24.20;20.63;;;9.50;99.90;;;;;;5076342;28;20623;-75
2023/05/12 03:36:28;;;;;;;22.90;20.50;;;9.50;99.90;;;;;;5076053;28;20229;-75
2023/05/12 03:38:55;;;;;;;25.60;21.03;;;9.50;99.90;;;;;;5076003;28;20201;-75
2023/05/12 03:41:21;;;;;;;25.93;22.07;;;9.50;99.90;;;;;;5075911;28;20204;-76
2023/05/12 03:43:49;;;;;;;24.73;20.00;;;9.50;99.90;;;;;;5075762;28;20204;-75
2023/05/12 03:46:16;;;;;;;25.30;21.00;;;9.50;99.90;;;;;;5075646;28;20560;-75
2023/05/12 03:48:43;;;;;;;24.37;20.33;;;9.50;99.90;;;;;;5075834;28;20197;-75
2023/05/12 03:51:09;;;;;;;25.87;20.50;;;9.60;99.90;;;;;;5075828;28;20201;-75
2023/05/12 03:53:36;;;;;;;25.00;20.23;;;9.60;99.90;;;;;;5075440;28;20749;-75
2023/05/12 03:56:06;;;;;;;24.53;19.97;;;9.60;99.90;;;;;;5075460;28;20236;-75
2023/05/12 03:58:33;;;;;;;21.40;19.17;;;9.60;99.90;;;;;;5075482;28;20198;-75
2023/05/12 04:01:01;;;;;;;21.70;19.40;;;9.60;99.90;;;;;;5075675;28;20201;-75
2023/05/12 04:03:27;;;;;;;23.63;20.47;;;9.60;99.90;;;;;;5075624;28;20294;-75
2023/05/12 04:05:58;;;;;;;24.57;20.90;;;9.60;99.90;;;;;;5075307;28;20223;-75
2023/05/12 04:08:25;;;;;;;26.47;20.73;;;9.60;99.90;;;;;;5075317;28;20201;-75
2023/05/12 04:10:54;;;;;;;24.30;20.37;;;9.60;99.90;;;;;;5075180;28;20227;-75
2023/05/12 04:13:21;;;;;;;25.10;20.53;;;9.60;99.90;;;;;;5075513;28;20614;-75
2023/05/12 04:15:48;;;;;;;24.87;21.47;;;9.60;99.90;;;;;;5075315;28;20256;-75
2023/05/12 04:18:16;;;;;;;25.70;22.17;;;9.60;99.90;;;;;;5075054;28;20595;-76
2023/05/12 04:20:43;;;;;;;24.13;21.53;;;9.60;99.90;;;;;;5074996;28;20201;-75
2023/05/12 04:23:10;;;;;;;24.13;21.40;;;9.70;99.90;;;;;;5075092;28;20201;-75
2023/05/12 04:25:39;;;;;;;27.30;21.83;;;9.70;99.90;;;;;;5075099;28;20201;-75
2023/05/12 04:28:05;;;;;;;23.53;20.53;;;9.60;99.90;;;;;;5075293;28;20205;-76
2023/05/12 04:30:32;;;;;;;26.00;21.93;;;9.70;99.90;;;;;;5075166;28;20192;-76
2023/05/12 04:32:59;;;;;;;24.40;20.87;;;9.60;99.90;;;;;;5075111;28;20197;-75
2023/05/12 04:35:27;;;;;;;24.17;20.50;;;9.70;99.90;;;;;;5074765;28;20615;-76
2023/05/12 04:37:54;;;;;;;25.30;21.10;;;9.70;99.90;;;;;;5074822;28;20201;-75
2023/05/12 04:40:20;;;;;;;23.37;20.47;;;9.70;99.90;;;;;;5074959;28;20197;-76
2023/05/12 04:42:47;;;;;;;26.27;21.73;;;9.80;99.90;;;;;;5074749;28;20204;-75
2023/05/12 04:45:13;;;;;;;24.47;21.20;;;9.80;99.90;;;;;;5074748;28;20726;-77
2023/05/12 04:47:40;;;;;;;24.57;21.73;;;9.80;99.90;;;;;;5074673;28;20258;-75
2023/05/12 04:50:09;;;;;;;24.47;21.17;;;9.80;99.90;;;;;;5074509;28;20193;-75
2023/05/12 04:52:37;;;;;;;24.30;21.03;;;9.90;99.90;;;;;;5074224;28;20661;-74
2023/05/12 04:55:04;;;;;;;23.87;20.77;;;9.90;99.90;;;;;;5074486;28;20209;-75
2023/05/12 04:57:31;;;;;;;22.83;20.07;;;10.00;99.90;;;;;;5074321;28;20653;-74
2023/05/12 04:59:58;;;;;;;24.47;21.23;;;10.00;99.90;;;;;;5074434;28;20197;-76
2023/05/12 05:02:24;;;;;;;22.67;19.63;;;10.00;99.90;;;;;;5074433;28;20194;-75
2023/05/12 05:04:51;;;;;;;23.90;19.37;;;10.10;99.90;;;;;;5074327;28;20200;-75
2023/05/12 05:07:18;;;;;;;21.77;18.87;;;10.10;99.90;;;;;;5074053;28;20246;-75
2023/05/12 05:09:46;;;;;;;26.50;18.33;;;10.10;99.90;;;;;;5074227;28;20247;-75
2023/05/12 05:12:12;;;;;;;20.53;18.47;;;10.20;99.90;;;;;;5073958;28;20718;-75
2023/05/12 05:14:39;;;;;;;20.13;18.07;;;10.20;99.90;;;;;;5074155;28;20247;-74
2023/05/12 05:17:06;;;;;;;18.67;16.73;;;10.30;99.90;;;;;;5073883;28;20282;-75
2023/05/12 05:19:33;;;;;;;21.37;19.23;;;10.30;99.90;;;;;;5073780;28;20587;-76
2023/05/12 05:22:00;;;;;;;19.20;17.30;;;10.40;99.90;;;;;;5073966;28;20201;-75
2023/05/12 05:24:26;;;;;;;16.37;14.70;;;10.40;99.90;;;;;;5073812;28;20205;-76
2023/05/12 05:26:54;;;;;;;18.33;15.20;;;10.40;99.90;;;;;;5073682;28;20200;-75
2023/05/12 05:29:21;;;;;;;16.97;15.27;;;10.50;99.90;;;;;;5073825;28;20287;-77
2023/05/12 05:31:47;;;;;;;16.97;15.27;;;10.40;99.90;;;;;;5073439;28;20200;-76
2023/05/12 05:34:14;;;;;;;15.53;13.87;;;10.50;99.90;;;;;;5073686;28;20653;-77
2023/05/12 05:36:41;;;;;;;16.03;14.33;;;10.40;99.90;;;;;;5073648;28;20228;-76
2023/05/12 05:39:09;;;;;;;16.47;14.70;;;10.40;99.90;;;;;;5073491;28;20247;-78
2023/05/12 05:41:36;;;;;;;16.30;14.43;;;10.40;99.90;;;;;;5073385;28;20193;-77
2023/05/12 05:44:04;;;;;;;16.87;15.17;;;10.50;99.90;;;;;;5073284;28;20808;-78
2023/05/12 05:46:31;;;;;;;16.67;15.07;;;10.50;99.90;;;;;;5073354;28;20197;-77
2023/05/12 05:48:57;;;;;;;15.70;13.97;;;10.50;99.90;;;;;;5073218;28;20652;-78
2023/05/12 05:51:24;;;;;;;17.57;15.70;;;10.40;99.90;;;;;;5073444;28;20251;-77
2023/05/12 05:53:50;;;;;;;17.23;15.53;;;10.40;99.90;;;;;;5072484;28;20233;-75
2023/05/12 05:56:17;;;;;;;16.20;14.43;;;10.40;99.90;;;;;;5073530;28;20220;-79
2023/05/12 05:58:44;;;;;;;16.37;14.67;;;10.50;99.90;;;;;;5077992;28;20608;-79
2023/05/12 06:01:12;;;;;;;16.53;14.80;;;10.50;99.90;;;;;;5072945;28;20201;-73
2023/05/12 06:03:38;;;;;;;16.37;14.70;;;10.50;99.90;;;;;;5073332;28;20196;-80
2023/05/12 06:06:05;;;;;;;15.30;13.70;;;10.50;99.90;;;;;;5072589;28;20208;-78
2023/05/12 06:08:32;;;;;;;15.20;13.60;;;10.50;99.90;;;;;;5073162;28;20285;-81
2023/05/12 06:10:59;;;;;;;16.27;13.37;;;10.60;99.90;;;;;;5073226;28;20726;-80
2023/05/12 06:13:25;;;;;;;14.40;12.47;;;10.50;99.90;;;;;;5072988;28;20525;-80
2023/05/12 06:15:52;;;;;;;14.23;12.83;;;10.60;99.90;;;;;;5072949;28;20689;-79
2023/05/12 06:18:22;;;;;;;15.10;13.10;;;10.60;99.90;;;;;;5073267;28;20250;-78
2023/05/12 06:20:48;;;;;;;14.13;12.73;;;10.70;99.90;;;;;;5073498;28;20266;-78
2023/05/12 06:23:15;;;;;;;12.80;11.60;;;10.70;99.90;;;;;;5075063;28;20200;-79
2023/05/12 06:25:42;;;;;;;14.13;12.73;;;10.70;99.90;;;;;;5072974;28;20702;-79
2023/05/12 06:28:08;;;;;;;13.13;11.83;;;10.80;99.90;;;;;;5072932;28;20250;-78
2023/05/12 06:30:35;;;;;;;13.77;12.47;;;10.80;99.90;;;;;;5072811;28;20197;-78
2023/05/12 06:33:02;;;;;;;16.10;13.07;;;10.90;99.90;;;;;;5073183;28;20193;-78
2023/05/12 06:35:30;;;;;;;14.27;11.23;;;11.00;99.90;;;;;;5073470;28;20203;-78
2023/05/12 06:37:56;;;;;;;13.43;11.03;;;11.10;99.90;;;;;;5076052;28;20247;-81
2023/05/12 06:40:23;;;;;;;14.90;11.57;;;11.20;99.90;;;;;;5074173;28;20200;-79
2023/05/12 06:42:49;;;;;;;13.63;10.10;;;11.40;99.90;;;;;;5079107;28;20247;-79
2023/05/12 06:45:17;;;;;;;11.40;10.17;;;11.50;99.90;;;;;;5074275;28;20196;-80
2023/05/12 06:47:43;;;;;;;12.23;10.90;;;11.60;99.90;;;;;;5075248;28;20200;-79
2023/05/12 06:50:10;;;;;;;13.43;10.10;;;11.80;99.90;;;;;;5073267;28;20196;-80
2023/05/12 06:52:38;;;;;;;11.00;9.83;;;12.00;99.90;;;;;;5076191;28;20251;-80
2023/05/12 06:55:05;;;;;;;13.73;9.43;;;12.30;99.90;;;;;;5076657;28;20207;-81
2023/05/12 06:57:32;;;;;;;10.23;8.40;;;12.40;99.90;;;;;;5073504;28;20293;-81
2023/05/12 06:59:59;;;;;;;9.83;8.83;;;12.60;99.90;;;;;;5073857;28;20238;-80
2023/05/12 07:02:26;;;;;;;10.37;8.83;;;12.60;99.90;;;;;;5074052;28;20599;-82
2023/05/12 07:04:52;;;;;;;10.27;8.03;;;12.70;99.90;;;;;;5074212;28;20258;-83
2023/05/12 07:07:19;;;;;;;9.00;7.80;;;12.80;99.90;;;;;;5078109;28;20197;-83
2023/05/12 07:09:47;;;;;;;7.83;7.03;;;13.00;99.90;;;;;;5077537;28;20219;-83
2023/05/12 07:12:13;;;;;;;9.20;7.00;;;13.20;99.90;;;;;;5076978;28;20254;-82
2023/05/12 07:14:40;;;;;;;9.07;8.13;;;13.20;99.90;;;;;;5077076;28;20266;-82
2023/05/12 07:17:06;;;;;;;9.60;7.13;;;13.10;99.90;;;;;;5076755;28;20251;-82
2023/05/12 07:19:34;;;;;;;9.77;7.60;;;13.10;99.90;;;;;;5076789;28;20193;-82
2023/05/12 07:22:01;;;;;;;9.90;7.60;;;13.20;99.90;;;;;;5076554;28;20205;-82
2023/05/12 07:24:27;;;;;;;8.40;6.90;;;13.20;99.90;;;;;;5076398;28;20254;-82
2023/05/12 07:26:55;;;;;;;10.73;7.17;;;13.30;99.90;;;;;;5076649;28;20197;-81
2023/05/12 07:29:22;;;;;;;7.63;6.93;;;13.40;99.90;;;;;;5076630;28;20197;-81
2023/05/12 07:31:48;;;;;;;10.20;7.63;;;13.50;99.90;;;;;;5076489;28;20200;-80
2023/05/12 07:34:15;;;;;;;8.03;7.00;;;13.60;99.90;;;;;;5076443;28;20201;-81
2023/05/12 07:36:42;;;;;;;10.43;6.87;;;13.60;99.90;;;;;;5076155;28;20282;-80
2023/05/12 07:39:08;;;;;;;7.97;7.13;;;13.70;99.90;;;;;;5076121;28;20197;-80
2023/05/12 07:41:35;;;;;;;9.60;7.10;;;13.80;99.90;;;;;;5075965;28;20549;-80
2023/05/12 07:44:03;;;;;;;8.63;6.93;;;13.80;99.90;;;;;;5076162;28;20201;-80
2023/05/12 07:46:29;;;;;;;8.17;5.97;;;14.00;99.90;;;;;;5075950;28;20712;-79
2023/05/12 07:48:56;;;;;;;7.17;6.47;;;14.20;99.90;;;;;;5078003;28;20242;-79
2023/05/12 07:51:22;;;;;;;7.50;6.33;;;14.40;99.90;;;;;;5075943;28;20197;-79
2023/05/12 07:53:49;;;;;;;7.33;6.67;;;14.30;99.90;;;;;;5075529;28;20262;-79
2023/05/12 07:56:16;;;;;;;7.37;6.00;;;14.20;99.90;;;;;;5075919;28;20221;-78
2023/05/12 07:58:42;;;;;;;7.53;6.33;;;14.20;99.90;;;;;;5075995;28;20552;-78
2023/05/12 08:01:10;;;;;;;7.30;6.38;;;14.30;99.90;;;;;;5075848;28;20251;-78
2023/05/12 08:03:37;;;;;;;7.33;5.77;;;14.30;99.90;;;;;;5075781;28;20201;-78
2023/05/12 08:06:05;;;;;;;6.70;6.00;;;14.20;99.90;;;;;;5075591;28;20199;-78
2023/05/12 08:08:31;;;;;;;6.35;5.70;;;14.50;99.90;;;;;;5075591;28;20292;-79
2023/05/12 08:10:58;;;;;;;7.05;6.32;;;14.70;99.90;;;;;;5075529;28;20749;-76
2023/05/12 08:13:25;;;;;;;6.57;5.97;;;14.80;99.90;;;;;;5075502;28;20193;-78
2023/05/12 08:15:52;;;;;;;7.25;5.90;;;14.90;99.90;;;;;;5074815;28;20204;-78
2023/05/12 08:18:20;;;;;;;7.30;5.55;;;14.90;99.90;;;;;;5075399;28;20197;-77
2023/05/12 08:20:48;;;;;;;7.18;6.38;;;14.80;99.90;;;;;;5075077;28;20599;-78
2023/05/12 08:23:16;;;;;;;6.40;5.80;;;14.80;99.90;;;;;;5075213;28;20244;-78
2023/05/12 08:25:43;;;;;;;6.70;6.10;;;14.80;99.90;;;;;;5075024;28;20649;-77
2023/05/12 08:28:10;;;;;;;6.97;5.65;;;14.60;99.90;;;;;;5075198;28;20617;-77
2023/05/12 08:30:36;;;;;;;6.63;5.75;;;14.60;99.90;;;;;;5075031;28;20193;-78
2023/05/12 08:33:03;;;;;;;6.93;5.80;;;14.40;99.90;;;;;;5074896;28;20648;-77
2023/05/12 08:35:31;;;;;;;7.72;6.63;;;14.60;99.90;;;;;;5074942;28;20201;-77
2023/05/12 08:37:58;;;;;;;6.38;5.80;;;14.70;99.90;;;;;;5075266;28;20840;-77
2023/05/12 08:40:25;;;;;;;7.63;6.00;;;14.90;99.90;;;;;;5075013;28;20270;-77
2023/05/12 08:42:59;;;;;;;6.30;5.75;;;14.90;99.90;;;;;;5074824;28;20197;-76
2023/05/12 08:45:25;;;;;;;6.07;5.57;;;15.10;99.90;;;;;;5074934;28;20266;-78
2023/05/12 08:47:53;;;;;;;6.28;5.78;;;15.20;99.90;;;;;;5074625;28;20656;-78
2023/05/12 08:50:22;;;;;;;6.22;5.70;;;15.40;99.90;;;;;;5074011;28;20557;-77
2023/05/12 08:52:50;;;;;;;8.85;6.13;;;15.50;99.90;;;;;;5074493;28;20581;-78
2023/05/12 08:55:19;;;;;;;6.05;5.47;;;15.50;99.90;;;;;;5074723;28;20199;-78
2023/05/12 08:57:47;;;;;;;5.70;5.25;;;15.60;99.90;;;;;;5073971;28;20274;-78
2023/05/12 09:00:15;;;;;;;6.15;5.53;;;15.40;99.90;;;;;;5074479;28;20201;-77
2023/05/12 09:02:43;;;;;;;5.63;5.10;;;15.30;99.90;;;;;;5074670;28;20237;-78
2023/05/12 09:05:10;;;;;;;7.72;5.40;;;15.40;99.90;;;;;;5074450;28;20656;-77
2023/05/12 09:07:38;;;;;;;5.65;5.05;;;15.60;99.90;;;;;;5074108;28;20197;-77
2023/05/12 09:10:10;;;;;;;5.55;5.05;;;15.90;99.90;;;;;;5074463;28;20251;-79
2023/05/12 09:12:38;;;;;;;4.80;4.35;;;15.80;99.90;;;;;;5074345;28;20287;-78
2023/05/12 09:15:07;;;;;;;5.88;4.30;;;16.00;99.90;;;;;;5073654;28;20711;-80
2023/05/12 09:17:35;;;;;;;5.13;4.68;;;16.40;99.90;;;;;;5074253;28;20228;-81
2023/05/12 09:20:02;;;;;;;4.82;4.32;;;16.50;99.90;;;;;;5074261;28;20196;-80
2023/05/12 09:22:30;;;;;;;4.82;4.43;;;16.70;99.90;;;;;;5074097;28;20207;-80
2023/05/12 09:24:56;;;;;;;10.27;4.70;;;16.80;99.90;;;;;;5073550;28;20201;-80
2023/05/12 09:27:28;;;;;;;5.50;5.03;;;16.90;99.90;;;;;;5073009;28;20201;-79
2023/05/12 09:29:55;;;;;;;6.38;4.40;;;17.30;99.90;;;;;;5074161;28;20193;-79
2023/05/12 09:32:31;;;;;;;4.95;4.47;;;17.40;99.90;;;;;;5074080;28;20193;-79
2023/05/12 09:35:02;;;;;;;4.97;4.47;;;17.70;99.90;;;;;;5073849;28;20232;-80
2023/05/12 09:37:31;;;;;;;4.80;4.28;;;17.60;99.90;;;;;;5074918;28;20217;-80
2023/05/12 09:40:01;;;;;;;4.78;4.38;;;17.60;99.90;;;;;;5072671;28;20215;-79
2023/05/12 09:42:31;;;;;;;6.97;4.50;;;17.70;99.90;;;;;;5053781;28;20244;-79
2023/05/12 09:45:02;;;;;;;5.38;4.72;;;18.00;99.90;;;;;;5053574;28;20266;-79
2023/05/12 09:47:34;;;;;;;4.75;4.28;;;18.00;99.90;;;;;;5053295;28;20657;-79
2023/05/12 09:50:02;;;;;;;4.50;4.07;;;18.10;99.90;;;;;;5053387;28;20220;-75
2023/05/12 09:52:29;;;;;;;4.97;4.05;;;18.40;99.90;;;;;;5053155;28;20232;-74
2023/05/12 09:54:55;;;;;;;4.45;4.05;;;18.20;99.90;;;;;;5052928;28;20197;-75
2023/05/12 09:57:25;;;;;;;4.43;3.63;;;17.90;99.90;;;;;;5053163;28;20225;-75
2023/05/12 09:59:54;;;;;;;3.88;3.47;;;17.20;99.90;;;;;;5053427;28;20201;-74
2023/05/12 10:02:20;;;;;;;4.47;3.30;;;16.90;99.90;;;;;;5053280;28;20596;-75
2023/05/12 10:04:50;;;;;;;4.00;3.03;;;16.50;99.90;;;;;;5053123;28;20803;-74
2023/05/12 10:07:21;;;;;;;3.47;3.17;;;16.30;99.90;;;;;;5053189;28;20206;-73
2023/05/12 10:09:49;;;;;;;3.10;2.80;;;16.30;99.90;;;;;;5052790;28;20680;-74
2023/05/12 10:12:16;;;;;;;3.42;3.13;;;16.40;99.90;;;;;;5053222;28;20275;-76
2023/05/12 10:14:43;;;;;;;3.42;2.88;;;17.20;99.90;;;;;;5053000;28;20204;-77
2023/05/12 10:17:12;;;;;;;2.78;2.42;;;18.00;99.90;;;;;;5052620;28;20217;-75
2023/05/12 10:19:41;;;;;;;3.25;2.55;;;18.50;99.90;;;;;;5052054;28;20201;-76
2023/05/12 10:22:10;;;;;;;2.88;2.63;;;18.50;99.90;;;;;;5053075;28;20251;-77
2023/05/12 10:24:37;;;;;;;3.00;2.70;;;17.90;99.90;;;;;;5052960;28;20194;-76
2023/05/12 10:27:05;;;;;;;2.60;2.35;;;17.30;99.90;;;;;;5053052;28;20251;-77
2023/05/12 10:29:33;;;;;;;2.58;2.38;;;17.10;99.90;;;;;;5052740;28;20228;-76
2023/05/12 10:32:00;;;;;;;2.63;2.42;;;16.80;99.90;;;;;;5052784;28;20255;-76
2023/05/12 10:34:33;;;;;;;3.38;2.60;;;16.60;99.90;;;;;;5053231;28;20201;-77
2023/05/12 10:37:02;;;;;;;2.78;2.58;;;16.00;99.90;;;;;;5052791;28;20772;-75
2023/05/12 10:39:29;;;;;;;3.35;3.05;;;15.60;99.90;;;;;;5052543;28;20224;-75
2023/05/12 10:42:01;;;;;;;3.08;2.72;;;15.30;99.90;;;;;;5052820;28;20252;-77
2023/05/12 10:44:28;;;;;;;3.10;2.80;;;15.90;99.90;;;;;;5052534;28;20202;-75
2023/05/12 10:46:57;;;;;;;3.30;3.00;;;16.00;99.90;;;;;;5052565;28;20653;-77
2023/05/12 10:49:33;;;;;;;3.50;3.20;;;15.70;99.90;;;;;;5052755;28;20203;-76
2023/05/12 10:52:00;;;;;;;3.97;3.17;;;15.50;99.90;;;;;;5052483;28;20216;-77
2023/05/12 10:54:27;;;;;;;3.63;3.33;;;15.30;99.90;;;;;;5052562;28;20198;-76
2023/05/12 10:56:59;;;;;;;3.65;3.00;;;15.00;99.90;;;;;;5052464;28;20197;-74
2023/05/12 10:59:26;;;;;;;3.97;3.40;;;14.90;99.90;;;;;;5052345;28;20204;-76
2023/05/12 11:01:57;;;;;;;3.67;3.38;;;15.00;99.90;;;;;;5052532;28;20202;-76
2023/05/12 11:04:39;;;;;;;3.63;3.33;;;15.20;99.90;;;;;;5052455;28;20201;-76
2023/05/12 11:07:08;;;;;;;3.20;2.90;;;15.00;99.90;;;;;;5052639;28;20212;-75
2023/05/12 11:09:35;;;;;;;3.43;3.13;;;15.00;99.90;;;;;;5051964;28;20550;-73
2023/05/12 11:12:02;;;;;;;4.20;3.40;;;14.80;99.90;;;;;;5052462;28;20194;-76
2023/05/12 11:14:29;;;;;;;4.80;3.77;;;14.90;99.90;;;;;;5052153;28;20665;-75
2023/05/12 11:16:56;;;;;;;3.60;3.30;;;14.80;99.90;;;;;;5052253;28;20198;-75
2023/05/12 11:19:22;;;;;;;6.53;3.60;;;14.80;99.90;;;;;;5052219;28;20650;-75
2023/05/12 11:21:50;;;;;;;3.80;3.50;;;15.20;99.90;;;;;;5052437;28;20205;-75
2023/05/12 11:24:17;;;;;;;3.65;3.35;;;15.40;99.90;;;;;;5052154;28;20194;-75
2023/05/12 11:26:44;;;;;;;3.25;2.95;;;15.80;99.90;;;;;;5052274;28;20205;-74
2023/05/12 11:29:11;;;;;;;3.63;3.33;;;16.00;99.90;;;;;;5052424;28;20204;-74
2023/05/12 11:31:38;;;;;;;4.03;3.63;;;16.00;99.90;;;;;;5052179;28;20204;-74
2023/05/12 11:34:06;;;;;;;4.30;3.90;;;15.90;99.90;;;;;;5051889;28;20869;-74
2023/05/12 11:36:37;;;;;;;3.72;3.42;;;16.00;99.90;;;;;;5051840;28;20205;-76
2023/05/12 11:39:06;;;;;;;5.00;3.92;;;16.00;99.90;;;;;;5050191;28;20287;-74
2023/05/12 11:41:32;;;;;;;4.13;3.72;;;16.00;99.90;;;;;;5049732;28;20209;-74
2023/05/12 11:43:59;;;;;;;4.13;3.72;;;16.30;99.90;;;;;;5049466;28;20202;-75
2023/05/12 11:46:26;;;;;;;3.85;3.55;;;16.50;99.90;;;;;;5049852;28;20259;-74
2023/05/12 11:48:56;;;;;;;5.60;3.60;;;16.60;99.90;;;;;;5049646;28;20279;-74
2023/05/12 11:51:23;;;;;;;4.00;3.55;;;16.70;99.90;;;;;;5050744;28;20205;-74
2023/05/12 11:53:51;;;;;;;4.00;3.60;;;16.70;99.90;;;;;;5053117;28;20279;-74
2023/05/12 11:56:20;;;;;;;3.83;3.40;;;16.60;99.90;;;;;;5053360;28;20206;-74
2023/05/12 11:58:55;;;;;;;4.10;3.65;;;16.40;99.90;;;;;;5053270;28;20236;-73
2023/05/12 12:01:22;;;;;;;4.05;3.60;;;16.40;99.90;;;;;;5053119;28;20203;-74
2023/05/12 12:03:50;;;;;;;3.53;3.22;;;16.50;99.90;;;;;;5052687;28;20255;-74
2023/05/12 12:06:18;;;;;;;3.30;3.00;;;16.50;99.90;;;;;;5053301;28;20197;-73
2023/05/12 12:08:55;;;;;;;3.58;3.28;;;16.40;99.90;;;;;;5053170;28;20201;-74
2023/05/12 12:11:27;;;;;;;3.30;3.00;;;16.30;99.90;;;;;;5054988;28;20652;-74
2023/05/12 12:13:56;;;;;;;3.72;2.90;;;16.30;99.90;;;;;;5055259;28;20260;-80
2023/05/12 12:16:24;;;;;;;2.75;2.55;;;16.20;99.90;;;;;;5055546;28;20198;-77
2023/05/12 12:18:51;;;;;;;2.95;2.67;;;16.00;99.90;;;;;;5055243;28;20225;-78
2023/05/12 12:21:17;;;;;;;2.90;2.70;;;16.10;99.90;;;;;;5055248;28;20284;-77
2023/05/12 12:23:44;;;;;;;2.60;2.40;;;16.10;99.90;;;;;;5055237;28;20198;-77
2023/05/12 12:26:11;;;;;;;2.55;2.35;;;16.10;99.90;;;;;;5055117;28;20208;-78
2023/05/12 12:28:39;;;;;;;3.03;2.70;;;16.10;99.90;;;;;;5055056;28;20197;-75
2023/05/12 12:31:06;;;;;;;2.50;2.30;;;16.20;99.90;;;;;;5055328;28;20200;-80
2023/05/12 12:33:32;;;;;;;2.67;2.45;;;16.20;99.90;;;;;;5055116;28;20569;-77
2023/05/12 12:35:59;;;;;;;4.03;2.10;;;16.50;99.90;;;;;;5055080;28;20272;-79
2023/05/12 12:38:26;;;;;;;2.30;2.10;;;16.50;99.90;;;;;;5055050;28;20225;-79